createdAt,value
2022-09-11T00:01:16.715Z,55.40
2022-09-11T00:03:43.732Z,55.30
2022-09-11T00:06:11.355Z,55.30
2022-09-11T00:08:38.598Z,55.40
2022-09-11T00:11:06.012Z,55.50
2022-09-11T00:13:32.734Z,55.40
2022-09-11T00:15:59.574Z,55.40
2022-09-11T00:18:29.367Z,55.40
2022-09-11T00:20:56.558Z,55.30
2022-09-11T00:23:24.022Z,55.50
2022-09-11T00:25:50.748Z,55.30
2022-09-11T00:28:21.280Z,55.20
2022-09-11T00:30:48.569Z,55.00
2022-09-11T00:33:15.609Z,55.20
2022-09-11T00:35:42.274Z,55.30
2022-09-11T00:38:09.070Z,55.10
2022-09-11T00:40:48.068Z,55.00
2022-09-11T00:43:15.156Z,54.90
2022-09-11T00:45:41.945Z,55.10
2022-09-11T00:48:08.676Z,55.00
2022-09-11T00:50:35.387Z,55.40
2022-09-11T00:53:03.256Z,55.70
2022-09-11T00:55:32.260Z,56.10
2022-09-11T00:58:00.355Z,56.10
2022-09-11T01:00:27.091Z,56.20
2022-09-11T01:02:54.547Z,56.10
2022-09-11T01:05:22.456Z,55.80
2022-09-11T01:07:49.340Z,55.90
2022-09-11T01:10:16.045Z,55.70
2022-09-11T01:12:48.121Z,55.60
2022-09-11T01:15:14.774Z,55.30
2022-09-11T01:18:06.073Z,55.50
2022-09-11T01:20:51.611Z,55.20
2022-09-11T01:23:50.779Z,55.20
2022-09-11T01:26:34.677Z,55.10
2022-09-11T01:29:10.282Z,55.00
2022-09-11T01:31:41.622Z,55.10
2022-09-11T01:34:37.859Z,55.30
2022-09-11T01:37:05.708Z,55.30
2022-09-11T01:39:38.239Z,55.20
2022-09-11T01:42:05.635Z,54.90
2022-09-11T01:44:34.617Z,55.20
2022-09-11T01:47:02.518Z,55.20
2022-09-11T01:49:31.725Z,55.20
2022-09-11T01:51:59.564Z,55.20
2022-09-11T01:54:27.339Z,55.20
2022-09-11T01:56:55.900Z,55.20
2022-09-11T01:59:27.870Z,55.20
2022-09-11T02:01:57.354Z,55.20
2022-09-11T02:04:26.145Z,55.20
2022-09-11T02:07:02.257Z,55.20
2022-09-11T02:09:31.242Z,54.90
2022-09-11T02:11:57.933Z,55.10
2022-09-11T02:14:26.176Z,55.10
2022-09-11T02:16:53.806Z,55.10
2022-09-11T02:19:21.850Z,55.00
2022-09-11T02:21:48.788Z,55.00
2022-09-11T02:24:15.649Z,55.00
2022-09-11T02:26:42.990Z,55.00
2022-09-11T02:29:10.430Z,55.00
2022-09-11T02:31:39.047Z,55.10
2022-09-11T02:34:05.778Z,54.90
2022-09-11T02:36:32.476Z,55.00
2022-09-11T02:39:01.911Z,55.00
2022-09-11T02:41:29.803Z,54.80
2022-09-11T02:43:59.179Z,54.90
2022-09-11T02:46:44.767Z,54.90
2022-09-11T02:49:30.407Z,54.80
2022-09-11T02:52:09.559Z,54.80
2022-09-11T02:54:56.845Z,54.80
2022-09-11T02:57:26.576Z,54.80
2022-09-11T02:59:54.041Z,54.80
2022-09-11T03:02:21.152Z,55.10
2022-09-11T03:04:48.534Z,55.00
2022-09-11T03:07:15.247Z,55.00
2022-09-11T03:09:42.111Z,55.00
2022-09-11T03:12:08.839Z,54.80
2022-09-11T03:14:35.936Z,54.80
2022-09-11T03:17:02.650Z,54.90
2022-09-11T03:19:29.316Z,54.90
2022-09-11T03:21:56.038Z,55.00
2022-09-11T03:24:22.724Z,54.90
2022-09-11T03:26:49.535Z,54.80
2022-09-11T03:29:16.220Z,55.00
2022-09-11T03:31:42.997Z,54.80
2022-09-11T03:34:10.450Z,54.80
2022-09-11T03:36:37.187Z,54.70
2022-09-11T03:39:04.014Z,54.80
2022-09-11T03:41:30.838Z,54.80
2022-09-11T03:43:57.543Z,54.90
2022-09-11T03:46:24.347Z,54.70
2022-09-11T03:48:52.492Z,54.70
2022-09-11T03:51:19.187Z,54.90
2022-09-11T03:53:45.893Z,54.70
2022-09-11T03:56:12.611Z,54.80
2022-09-11T03:58:39.392Z,54.80
2022-09-11T04:01:10.923Z,54.70
2022-09-11T04:03:37.701Z,54.60
2022-09-11T04:06:05.004Z,54.80
2022-09-11T04:08:33.815Z,54.80
2022-09-11T04:11:04.263Z,54.70
2022-09-11T04:13:31.450Z,54.60
2022-09-11T04:15:58.816Z,54.70
2022-09-11T04:18:25.479Z,54.70
2022-09-11T04:20:52.141Z,54.80
2022-09-11T04:23:18.843Z,54.60
2022-09-11T04:25:45.576Z,54.80
2022-09-11T04:28:12.787Z,54.70
2022-09-11T04:30:39.531Z,54.70
2022-09-11T04:33:06.263Z,54.60
2022-09-11T04:35:33.013Z,54.80
2022-09-11T04:37:59.701Z,54.60
2022-09-11T04:40:26.411Z,54.80
2022-09-11T04:42:53.091Z,54.70
2022-09-11T04:45:19.766Z,54.80
2022-09-11T04:47:46.430Z,54.70
2022-09-11T04:50:13.116Z,54.70
2022-09-11T04:52:39.807Z,54.70
2022-09-11T04:55:06.725Z,54.70
2022-09-11T04:57:33.404Z,54.80
2022-09-11T05:00:00.179Z,54.60
2022-09-11T05:02:26.880Z,54.60
2022-09-11T05:04:53.607Z,54.80
2022-09-11T05:07:20.267Z,54.80
2022-09-11T05:09:47.527Z,54.60
2022-09-11T05:12:14.192Z,54.60
2022-09-11T05:14:41.214Z,54.60
2022-09-11T05:17:07.904Z,54.70
2022-09-11T05:19:34.621Z,54.70
2022-09-11T05:22:01.295Z,54.60
2022-09-11T05:24:28.007Z,54.60
2022-09-11T05:26:54.671Z,54.60
2022-09-11T05:29:21.451Z,54.70
2022-09-11T05:31:48.190Z,54.70
2022-09-11T05:34:14.930Z,54.60
2022-09-11T05:36:41.875Z,54.70
2022-09-11T05:39:10.473Z,54.60
2022-09-11T05:41:37.162Z,54.60
2022-09-11T05:44:03.907Z,54.70
2022-09-11T05:46:30.646Z,54.70
2022-09-11T05:49:00.309Z,54.60
2022-09-11T05:51:27.028Z,54.60
2022-09-11T05:53:54.167Z,54.60
2022-09-11T05:56:22.499Z,54.70
2022-09-11T05:58:49.410Z,54.70
2022-09-11T06:01:17.134Z,54.70
2022-09-11T06:03:44.035Z,54.70
2022-09-11T06:06:11.416Z,54.70
2022-09-11T06:08:38.621Z,54.70
2022-09-11T06:11:08.789Z,54.80
2022-09-11T06:13:36.194Z,54.50
2022-09-11T06:16:03.253Z,54.50
2022-09-11T06:18:29.998Z,54.70
2022-09-11T06:21:00.359Z,54.60
2022-09-11T06:23:27.039Z,54.50
2022-09-11T06:25:54.305Z,54.60
2022-09-11T06:28:23.997Z,54.60
2022-09-11T06:30:50.858Z,54.70
2022-09-11T06:33:20.306Z,54.50
2022-09-11T06:35:59.303Z,54.60
2022-09-11T06:38:26.873Z,54.40
2022-09-11T06:40:54.058Z,54.40
2022-09-11T06:43:20.830Z,55.10
2022-09-11T06:45:50.483Z,55.70
2022-09-11T06:48:17.468Z,55.30
2022-09-11T06:50:44.267Z,55.10
2022-09-11T06:53:11.154Z,55.30
2022-09-11T06:55:39.159Z,55.30
2022-09-11T06:58:06.532Z,55.30
2022-09-11T07:00:33.954Z,55.40
2022-09-11T07:03:02.161Z,55.20
2022-09-11T07:05:28.853Z,55.30
2022-09-11T07:07:56.736Z,55.30
2022-09-11T07:10:23.530Z,55.30
2022-09-11T07:12:52.255Z,55.30
2022-09-11T07:15:19.127Z,55.40
2022-09-11T07:17:45.805Z,55.20
2022-09-11T07:20:12.550Z,55.20
2022-09-11T07:22:40.275Z,55.10
2022-09-11T07:25:07.871Z,55.20
2022-09-11T07:27:34.717Z,55.20
2022-09-11T07:30:01.458Z,55.20
2022-09-11T07:32:28.195Z,55.20
2022-09-11T07:34:54.892Z,55.30
2022-09-11T07:37:21.651Z,55.30
2022-09-11T07:39:48.366Z,55.40
2022-09-11T07:42:15.067Z,55.50
2022-09-11T07:44:41.793Z,55.50
2022-09-11T07:47:08.546Z,55.60
2022-09-11T07:49:35.234Z,55.30
2022-09-11T07:52:03.338Z,55.40
2022-09-11T07:54:30.197Z,55.40
2022-09-11T07:56:58.149Z,55.50
2022-09-11T07:59:24.859Z,55.40
2022-09-11T08:01:51.741Z,55.50
2022-09-11T08:04:18.523Z,55.30
2022-09-11T08:06:45.200Z,55.30
2022-09-11T08:09:13.131Z,55.40
2022-09-11T08:11:40.759Z,55.20
2022-09-11T08:14:07.553Z,55.40
2022-09-11T08:16:36.271Z,55.30
2022-09-11T08:19:03.316Z,55.40
2022-09-11T08:21:29.989Z,55.30
2022-09-11T08:23:56.708Z,55.30
2022-09-11T08:26:30.371Z,55.20
2022-09-11T08:28:57.495Z,55.10
2022-09-11T08:31:28.291Z,55.20
2022-09-11T08:33:55.307Z,55.20
2022-09-11T08:36:22.086Z,55.10
2022-09-11T08:38:48.910Z,55.30
2022-09-11T08:41:16.543Z,55.20
2022-09-11T08:43:47.615Z,55.00
2022-09-11T08:46:14.283Z,55.00
2022-09-11T08:48:43.988Z,55.10
2022-09-11T08:51:12.563Z,54.90
2022-09-11T08:53:39.266Z,55.10
2022-09-11T08:56:08.811Z,55.10
2022-09-11T08:58:38.821Z,55.10
2022-09-11T09:01:26.239Z,54.80
2022-09-11T09:04:05.773Z,54.80
2022-09-11T09:06:51.301Z,54.70
2022-09-11T09:09:25.291Z,54.60
2022-09-11T09:11:55.403Z,54.70
2022-09-11T09:14:24.764Z,55.10
2022-09-11T09:17:07.085Z,55.10
2022-09-11T09:19:35.080Z,54.80
2022-09-11T09:22:03.730Z,54.90
2022-09-11T09:24:32.510Z,54.90
2022-09-11T09:26:59.692Z,54.90
2022-09-11T09:29:28.563Z,54.90
2022-09-11T09:31:59.968Z,54.80
2022-09-11T09:34:27.858Z,54.90
2022-09-11T09:37:11.486Z,54.80
2022-09-11T09:39:38.311Z,54.70
2022-09-11T09:42:05.230Z,55.00
2022-09-11T09:44:37.813Z,54.90
2022-09-11T09:47:04.493Z,54.60
2022-09-11T09:49:32.306Z,54.70
2022-09-11T09:52:04.087Z,54.70
2022-09-11T09:54:31.194Z,55.50
2022-09-11T09:57:02.569Z,54.90
2022-09-11T09:59:32.136Z,54.50
2022-09-11T10:01:58.909Z,54.70
2022-09-11T10:04:27.161Z,54.90
2022-09-11T10:06:55.335Z,55.40
2022-09-11T10:09:25.977Z,54.70
2022-09-11T10:11:57.455Z,54.60
2022-09-11T10:14:49.770Z,54.60
2022-09-11T10:17:24.042Z,54.60
2022-09-11T10:19:51.064Z,54.60
2022-09-11T10:22:22.151Z,54.60
2022-09-11T10:25:01.935Z,54.50
2022-09-11T10:27:29.144Z,54.40
2022-09-11T10:29:55.909Z,54.70
2022-09-11T10:32:24.724Z,54.80
2022-09-11T10:34:51.483Z,54.60
2022-09-11T10:37:23.511Z,54.60
2022-09-11T10:39:50.290Z,54.50
2022-09-11T10:42:18.304Z,54.60
2022-09-11T10:44:45.095Z,54.60
2022-09-11T10:47:20.655Z,54.60
2022-09-11T10:49:48.035Z,54.30
2022-09-11T10:52:14.843Z,54.60
2022-09-11T10:55:00.206Z,54.60
2022-09-11T10:57:45.496Z,54.50
2022-09-11T11:00:23.789Z,54.30
2022-09-11T11:02:54.737Z,54.60
2022-09-11T11:05:36.760Z,54.40
2022-09-11T11:08:03.436Z,54.40
2022-09-11T11:10:39.939Z,54.50
2022-09-11T11:13:13.462Z,54.30
2022-09-11T11:16:02.240Z,54.60
2022-09-11T11:18:33.845Z,54.40
2022-09-11T11:21:03.807Z,54.20
2022-09-11T11:23:31.456Z,54.30
2022-09-11T11:26:01.222Z,54.40
2022-09-11T11:28:32.796Z,54.50
2022-09-11T11:31:25.962Z,54.50
2022-09-11T11:34:11.726Z,54.20
2022-09-11T11:36:41.159Z,54.20
2022-09-11T11:39:18.775Z,54.20
2022-09-11T11:41:46.423Z,54.60
2022-09-11T11:44:15.885Z,54.50
2022-09-11T11:46:46.222Z,54.40
2022-09-11T11:49:15.508Z,54.30
2022-09-11T11:51:44.695Z,54.60
2022-09-11T11:54:20.380Z,54.50
2022-09-11T11:56:48.840Z,54.30
2022-09-11T11:59:15.722Z,54.40
2022-09-11T12:01:48.078Z,54.40
2022-09-11T12:04:27.160Z,54.40
2022-09-11T12:06:53.848Z,54.20
2022-09-11T12:09:20.543Z,54.40
2022-09-11T12:11:47.756Z,54.30
2022-09-11T12:14:32.224Z,54.50
2022-09-11T12:16:59.075Z,54.10
2022-09-11T12:19:25.785Z,55.20
2022-09-11T12:21:52.452Z,54.40
2022-09-11T12:24:22.961Z,54.40
2022-09-11T12:27:11.821Z,54.50
2022-09-11T12:29:43.947Z,54.40
2022-09-11T12:32:13.899Z,54.20
2022-09-11T12:34:43.679Z,54.10
2022-09-11T12:37:14.730Z,54.30
2022-09-11T12:39:41.736Z,54.10
2022-09-11T12:42:23.830Z,54.30
2022-09-11T12:44:50.517Z,54.10
2022-09-11T12:47:21.081Z,54.30
2022-09-11T12:49:52.488Z,54.20
2022-09-11T12:52:19.605Z,54.10
2022-09-11T12:54:46.287Z,54.30
2022-09-11T12:57:19.222Z,54.30
2022-09-11T12:59:46.245Z,54.10
2022-09-11T13:02:25.272Z,54.40
2022-09-11T13:04:52.277Z,54.10
2022-09-11T13:07:31.027Z,54.40
2022-09-11T13:09:58.157Z,54.10
2022-09-11T13:12:24.823Z,54.30
2022-09-11T13:15:00.888Z,54.20
2022-09-11T13:17:31.141Z,54.00
2022-09-11T13:20:07.832Z,54.10
2022-09-11T13:22:35.282Z,54.00
2022-09-11T13:25:17.955Z,54.20
2022-09-11T13:27:46.136Z,54.00
2022-09-11T13:30:13.507Z,54.40
2022-09-11T13:32:40.243Z,54.60
2022-09-11T13:35:11.016Z,54.60
2022-09-11T13:37:42.530Z,55.10
2022-09-11T13:40:14.918Z,54.30
2022-09-11T13:42:41.664Z,54.60
2022-09-11T13:45:11.368Z,54.60
2022-09-11T13:47:40.441Z,54.60
2022-09-11T13:50:09.661Z,54.70
2022-09-11T13:52:36.402Z,54.60
2022-09-11T13:55:04.610Z,54.50
2022-09-11T13:57:32.111Z,54.70
2022-09-11T14:00:00.272Z,54.60
2022-09-11T14:02:40.797Z,54.60
2022-09-11T14:05:09.431Z,54.50
2022-09-11T14:07:41.420Z,54.60
2022-09-11T14:10:14.608Z,54.80
2022-09-11T14:12:48.812Z,54.60
2022-09-11T14:15:20.371Z,54.60
2022-09-11T14:17:47.133Z,54.60
2022-09-11T14:20:14.747Z,54.60
2022-09-11T14:22:41.417Z,54.80
2022-09-11T14:25:21.348Z,54.80
2022-09-11T14:27:48.477Z,54.60
2022-09-11T14:30:36.295Z,54.80
2022-09-11T14:33:07.263Z,54.60
2022-09-11T14:35:35.616Z,54.50
2022-09-11T14:38:02.296Z,54.60
2022-09-11T14:40:28.970Z,54.80
2022-09-11T14:42:55.686Z,54.80
2022-09-11T14:45:23.989Z,54.60
2022-09-11T14:47:51.030Z,54.70
2022-09-11T14:50:17.761Z,54.60
2022-09-11T14:52:44.441Z,54.70
2022-09-11T14:55:14.532Z,54.70
2022-09-11T14:57:41.557Z,54.40
2022-09-11T15:00:08.772Z,54.60
2022-09-11T15:02:35.455Z,54.70
2022-09-11T15:05:02.223Z,54.60
2022-09-11T15:07:28.945Z,54.60
2022-09-11T15:09:55.665Z,54.60
2022-09-11T15:12:22.456Z,54.50
2022-09-11T15:14:58.574Z,54.60
2022-09-11T15:17:31.651Z,54.60
2022-09-11T15:20:00.018Z,54.60
2022-09-11T15:22:26.756Z,54.70
2022-09-11T15:24:53.844Z,54.60
2022-09-11T15:27:20.589Z,54.60
2022-09-11T15:29:47.328Z,54.60
2022-09-11T15:32:14.529Z,54.50
2022-09-11T15:34:42.475Z,54.70
2022-09-11T15:37:09.235Z,54.60
2022-09-11T15:39:36.061Z,54.60
2022-09-11T15:42:02.865Z,54.50
2022-09-11T15:44:29.586Z,54.60
2022-09-11T15:46:56.750Z,54.60
2022-09-11T15:49:23.686Z,54.60
2022-09-11T15:51:50.712Z,54.60
2022-09-11T15:54:17.495Z,55.40
2022-09-11T15:56:44.744Z,54.70
2022-09-11T15:59:11.523Z,54.70
2022-09-11T16:01:38.568Z,54.80
2022-09-11T16:04:09.179Z,54.60
2022-09-11T16:06:38.691Z,54.60
2022-09-11T16:09:06.267Z,54.70
2022-09-11T16:11:32.971Z,54.60
2022-09-11T16:13:59.738Z,54.50
2022-09-11T16:16:26.559Z,55.00
2022-09-11T16:18:53.425Z,54.60
2022-09-11T16:21:20.516Z,54.60
2022-09-11T16:23:52.738Z,54.70
2022-09-11T16:26:21.232Z,54.70
2022-09-11T16:28:48.300Z,54.60
2022-09-11T16:31:15.149Z,54.70
2022-09-11T16:33:45.242Z,54.70
2022-09-11T16:36:17.084Z,54.70
2022-09-11T16:38:44.246Z,54.70
2022-09-11T16:41:12.556Z,54.60
2022-09-11T16:43:40.246Z,54.70
2022-09-11T16:46:07.267Z,54.80
2022-09-11T16:48:34.090Z,54.70
2022-09-11T16:51:00.827Z,54.70
2022-09-11T16:53:28.189Z,54.70
2022-09-11T16:55:55.532Z,54.90
2022-09-11T16:58:22.532Z,54.80
2022-09-11T17:00:49.552Z,54.80
2022-09-11T17:03:17.057Z,54.80
2022-09-11T17:05:50.408Z,54.80
2022-09-11T17:08:17.456Z,54.50
2022-09-11T17:10:44.768Z,54.80
2022-09-11T17:13:11.655Z,54.80
2022-09-11T17:15:38.655Z,54.80
2022-09-11T17:18:05.359Z,54.90
2022-09-11T17:20:32.121Z,54.70
2022-09-11T17:22:58.811Z,54.70
2022-09-11T17:25:25.886Z,54.80
2022-09-11T17:27:52.555Z,54.90
2022-09-11T17:30:19.565Z,54.80
2022-09-11T17:32:46.246Z,54.70
2022-09-11T17:35:13.183Z,54.80
2022-09-11T17:37:39.917Z,54.70
2022-09-11T17:40:07.042Z,54.80
2022-09-11T17:42:33.807Z,55.10
2022-09-11T17:45:00.834Z,54.90
2022-09-11T17:47:31.032Z,54.90
2022-09-11T17:49:57.711Z,54.70
2022-09-11T17:52:24.528Z,54.60
2022-09-11T17:54:51.226Z,54.80
2022-09-11T17:57:17.931Z,54.90
2022-09-11T17:59:44.632Z,55.20
2022-09-11T18:02:14.510Z,55.70
2022-09-11T18:04:41.243Z,56.00
2022-09-11T18:07:07.923Z,56.40
2022-09-11T18:09:34.611Z,56.50
2022-09-11T18:12:03.534Z,56.70
2022-09-11T18:14:31.197Z,56.70
2022-09-11T18:16:57.891Z,56.50
2022-09-11T18:19:24.606Z,56.60
2022-09-11T18:21:51.325Z,56.70
2022-09-11T18:24:21.244Z,56.70
2022-09-11T18:26:49.782Z,56.80
2022-09-11T18:29:16.851Z,56.80
2022-09-11T18:31:44.451Z,56.70
2022-09-11T18:34:11.735Z,56.90
2022-09-11T18:36:38.556Z,56.90
2022-09-11T18:39:05.403Z,56.70
2022-09-11T18:41:32.795Z,56.80
2022-09-11T18:44:00.365Z,56.80
2022-09-11T18:46:27.214Z,57.00
2022-09-11T18:48:55.164Z,57.00
2022-09-11T18:51:21.921Z,56.80
2022-09-11T18:53:52.008Z,56.90
2022-09-11T18:56:19.063Z,56.90
2022-09-11T18:58:47.820Z,56.90
2022-09-11T19:01:18.835Z,56.70
2022-09-11T19:03:46.127Z,56.80
2022-09-11T19:06:14.166Z,56.80
2022-09-11T19:08:41.333Z,57.00
2022-09-11T19:11:09.206Z,56.90
2022-09-11T19:13:36.241Z,56.70
2022-09-11T19:16:04.319Z,56.70
2022-09-11T19:18:31.325Z,56.90
2022-09-11T19:21:00.331Z,56.90
2022-09-11T19:23:31.433Z,56.80
2022-09-11T19:26:03.407Z,56.40
2022-09-11T19:28:30.967Z,56.70
2022-09-11T19:31:01.026Z,56.90
2022-09-11T19:33:30.651Z,56.90
2022-09-11T19:35:57.715Z,56.60
2022-09-11T19:38:25.506Z,56.80
2022-09-11T19:40:52.549Z,56.90
2022-09-11T19:43:23.620Z,56.90
2022-09-11T19:46:03.029Z,57.50
2022-09-11T19:48:32.955Z,56.60
2022-09-11T19:51:01.572Z,56.70
2022-09-11T19:53:28.407Z,56.80
2022-09-11T19:55:55.201Z,56.80
2022-09-11T19:58:24.059Z,56.90
2022-09-11T20:00:51.224Z,57.00
2022-09-11T20:03:18.172Z,56.70
2022-09-11T20:05:44.981Z,56.60
2022-09-11T20:08:16.083Z,56.50
2022-09-11T20:10:44.821Z,56.30
2022-09-11T20:13:11.543Z,56.50
2022-09-11T20:15:38.815Z,56.50
2022-09-11T20:18:07.468Z,56.40
2022-09-11T20:20:34.595Z,56.40
2022-09-11T20:23:01.317Z,56.70
2022-09-11T20:25:28.080Z,56.40
2022-09-11T20:27:54.776Z,56.50
2022-09-11T20:30:23.003Z,56.50
2022-09-11T20:32:49.703Z,56.60
2022-09-11T20:35:16.449Z,56.60
2022-09-11T20:37:43.203Z,56.50
2022-09-11T20:40:11.450Z,56.70
2022-09-11T20:42:38.271Z,56.90
2022-09-11T20:45:05.138Z,56.80
2022-09-11T20:47:31.832Z,57.00
2022-09-11T20:50:00.508Z,57.40
2022-09-11T20:52:27.531Z,57.70
2022-09-11T20:54:54.452Z,57.80
2022-09-11T20:57:21.128Z,57.90
2022-09-11T20:59:47.886Z,57.50
2022-09-11T21:02:14.836Z,57.20
2022-09-11T21:04:41.752Z,57.40
2022-09-11T21:07:09.213Z,57.40
2022-09-11T21:09:35.906Z,57.20
2022-09-11T21:12:02.827Z,57.30
2022-09-11T21:14:29.506Z,57.20
2022-09-11T21:16:56.203Z,57.30
2022-09-11T21:19:22.904Z,57.30
2022-09-11T21:21:49.788Z,57.20
2022-09-11T21:24:16.471Z,57.10
2022-09-11T21:26:43.234Z,57.20
2022-09-11T21:29:11.318Z,56.90
2022-09-11T21:31:38.062Z,57.70
2022-09-11T21:34:04.808Z,56.80
2022-09-11T21:36:33.489Z,57.60
2022-09-11T21:39:00.179Z,58.80
2022-09-11T21:41:26.876Z,59.10
2022-09-11T21:43:53.610Z,59.10
2022-09-11T21:46:20.387Z,57.90
2022-09-11T21:48:47.114Z,57.30
2022-09-11T21:51:14.596Z,58.20
2022-09-11T21:53:42.038Z,58.60
2022-09-11T21:56:29.536Z,59.90
2022-09-11T21:58:56.354Z,59.40
2022-09-11T22:01:23.638Z,59.50
2022-09-11T22:03:50.613Z,59.40
2022-09-11T22:06:17.362Z,59.30
2022-09-11T22:08:45.127Z,59.10
2022-09-11T22:11:11.940Z,59.20
2022-09-11T22:13:39.186Z,59.20
2022-09-11T22:16:06.981Z,59.30
2022-09-11T22:18:33.759Z,59.20
2022-09-11T22:21:01.359Z,59.40
2022-09-11T22:23:28.556Z,59.30
2022-09-11T22:26:05.927Z,59.30
2022-09-11T22:28:32.690Z,59.00
2022-09-11T22:30:59.387Z,59.00
2022-09-11T22:33:26.115Z,59.10
2022-09-11T22:35:52.885Z,59.00
2022-09-11T22:38:19.597Z,59.10
2022-09-11T22:40:51.860Z,58.90
2022-09-11T22:43:18.546Z,59.00
2022-09-11T22:45:51.836Z,58.90
2022-09-11T22:48:18.679Z,58.60
2022-09-11T22:50:45.365Z,58.90
2022-09-11T22:53:12.043Z,58.70
2022-09-11T22:55:42.555Z,58.70
2022-09-11T22:58:09.247Z,58.70
2022-09-11T23:00:35.955Z,58.70
2022-09-11T23:03:02.692Z,58.60
2022-09-11T23:05:47.961Z,58.50
2022-09-11T23:08:14.859Z,58.60
2022-09-11T23:10:44.887Z,58.60
2022-09-11T23:13:11.679Z,58.40
2022-09-11T23:15:38.415Z,58.60
2022-09-11T23:18:05.109Z,58.40
2022-09-11T23:20:31.881Z,58.70
2022-09-11T23:22:58.589Z,58.30
2022-09-11T23:25:25.387Z,58.30
2022-09-11T23:27:53.390Z,58.30
2022-09-11T23:30:20.368Z,58.30
2022-09-11T23:32:47.028Z,58.40
2022-09-11T23:35:13.791Z,58.30
2022-09-11T23:37:44.814Z,58.30
2022-09-11T23:40:12.122Z,58.20
2022-09-11T23:42:38.817Z,58.30
2022-09-11T23:45:07.532Z,58.10
2022-09-11T23:47:34.230Z,58.00
2022-09-11T23:50:02.124Z,58.20
2022-09-11T23:52:29.248Z,58.00
2022-09-11T23:54:55.934Z,58.20
2022-09-11T23:57:22.605Z,58.00
2022-09-11T23:59:49.301Z,57.60
